Souderton, PA (18964)

3:14 PM EST on November 26, 2014 (GMT -0500)
Elroy | Change Station
CLOSE
Current Station
Personal Weather Station
Location: Souderton, PA
Elevation: 358 ft
Nearby Weather Stations
Active Advisory: Winter Storm Warning Active Notice: Public Information Statement

Elev 358 ft 40.28 °N, 75.33 °W | Updated 11 minutes ago

Snow
Snow
33.2 °F
Feels Like 33 °F
N
2.0
Wind Variable Wind from NNE
Gusts 6.0 mph

Today
High -- | Low -- °F
--% Chance of Precip.
Yesterday
High -- | Low -- °F
Precip. -- in
6:59 AM 4:37 PM
Waxing Crescent, 22% visible
Pressure 29.89 in
Visibility 5.0 miles
Clouds Mostly Cloudy 800 ft
Overcast 1900 ft
Windchill 33 °F
Dew Point 32 °F
Humidity 96%
Rainfall 0.32 in
Snow Depth Not available.
UV 0 out of 12
Pollen .10 out of 12
Air Quality Not available.
Flu Activity Not available.
METAR KUKT 261955Z AUTO 02007KT 5SM BKN008 OVC019 00/00 A2989 RMK AO1 P0001

More Conditions Fewer Conditions

Pressure 29.89 in
Visibility 5.0 miles
Clouds Mostly Cloudy 800 ft
Overcast 1900 ft
Windchill 33 °F
Dew Point 32 °F
Humidity 96%
Rainfall 0.32 in
Snow Depth Not available.
UV 0 out of 12
Pollen .10 out of 12
Air Quality Not available.
Flu Activity Not available.
METAR KUKT 261955Z AUTO 02007KT 5SM BKN008 OVC019 00/00 A2989 RMK AO1 P0001

More Conditions Fewer Conditions

10-Day Weather Forecast

Almanac

Astronomy

Nov. 26, 2014 Rise Set
Actual Time
Civil Twilight
Nautical Twilight
Astronomical Twilight
Moon
Length of Visible Light
Length of Day
Tomorrow will be .
, % of the Moon is Illuminated

Today's Extremes

State Highs State Lows

Community

WunderPhotos

Upload Photos

1,773,846 photos uploaded!

WunderBlogs® & News

Nearby

Air Quality

  Air Quality AQ Index Pollutant
Not available.

Snow Depth

Station Depth Elevation

Earthquake Activity

City Distance Mag. Time & Date
Minimum magnitude displayed is 2.5.

Coastal Water Temperatures

Place Temperature

Nearby Weather Stations